createdAt,value
2019-03-28T00:00:27.395Z,6.75
2019-03-28T00:02:53.928Z,6.50
2019-03-28T00:05:20.590Z,5.00
2019-03-28T00:07:47.077Z,5.70
2019-03-28T00:10:13.730Z,5.78
2019-03-28T00:12:40.369Z,6.62
2019-03-28T00:15:07.135Z,6.17
2019-03-28T00:17:34.001Z,6.58
2019-03-28T00:20:00.592Z,6.28
2019-03-28T00:22:29.016Z,6.37
2019-03-28T00:25:00.287Z,6.15
2019-03-28T00:27:26.758Z,6.17
2019-03-28T00:29:53.236Z,7.60
2019-03-28T00:32:19.922Z,5.95
2019-03-28T00:34:46.570Z,5.47
2019-03-28T00:37:13.164Z,7.45
2019-03-28T00:39:40.175Z,5.50
2019-03-28T00:42:06.774Z,6.87
2019-03-28T00:44:33.361Z,8.33
2019-03-28T00:46:59.903Z,7.83
2019-03-28T00:49:26.472Z,6.37
2019-03-28T00:51:53.034Z,8.10
2019-03-28T00:54:19.483Z,9.03
2019-03-28T00:56:47.702Z,8.43
2019-03-28T00:59:14.392Z,7.72
2019-03-28T01:01:40.963Z,8.03
2019-03-28T01:04:07.619Z,7.37
2019-03-28T01:06:34.329Z,8.40
2019-03-28T01:09:03.984Z,7.45
2019-03-28T01:11:32.547Z,6.42
2019-03-28T01:13:59.051Z,9.33
2019-03-28T01:16:25.750Z,7.50
2019-03-28T01:18:52.300Z,9.53
2019-03-28T01:21:19.000Z,6.80
2019-03-28T01:23:46.094Z,7.87
2019-03-28T01:26:12.570Z,6.17
2019-03-28T01:28:39.025Z,9.93
2019-03-28T01:31:05.701Z,9.88
2019-03-28T01:33:32.086Z,8.63
2019-03-28T01:35:58.538Z,7.65
2019-03-28T01:38:25.113Z,7.83
2019-03-28T01:40:51.553Z,9.65
2019-03-28T01:43:17.991Z,8.05
2019-03-28T01:45:44.445Z,8.60
2019-03-28T01:48:12.002Z,7.12
2019-03-28T01:50:38.528Z,6.95
2019-03-28T01:53:04.978Z,8.68
2019-03-28T01:55:31.443Z,10.13
2019-03-28T01:57:57.896Z,10.35
2019-03-28T02:00:24.480Z,10.80
2019-03-28T02:02:51.003Z,12.07
2019-03-28T02:05:18.652Z,8.03
2019-03-28T02:07:45.150Z,10.18
2019-03-28T02:10:11.891Z,6.95
2019-03-28T02:12:38.550Z,8.50
2019-03-28T02:15:07.210Z,11.18
2019-03-28T02:17:33.874Z,7.62
2019-03-28T02:20:00.438Z,9.10
2019-03-28T02:22:26.998Z,7.33
2019-03-28T02:24:53.526Z,9.88
2019-03-28T02:27:24.361Z,10.65
2019-03-28T02:29:48.299Z,9.50
2019-03-28T02:32:15.189Z,9.70
2019-03-28T02:34:42.112Z,8.18
2019-03-28T02:37:08.742Z,11.28
2019-03-28T02:39:35.393Z,6.90
2019-03-28T02:42:01.948Z,6.20
2019-03-28T02:44:28.560Z,8.28
2019-03-28T02:46:55.154Z,8.53
2019-03-28T02:49:21.701Z,11.97
2019-03-28T02:51:48.378Z,7.97
2019-03-28T02:54:14.967Z,10.45
2019-03-28T02:56:41.866Z,8.25
2019-03-28T02:59:08.862Z,6.45
2019-03-28T03:01:35.429Z,6.78
2019-03-28T03:04:01.888Z,7.12
2019-03-28T03:06:28.605Z,9.35
2019-03-28T03:08:55.357Z,8.88
2019-03-28T03:11:22.012Z,8.40
2019-03-28T03:13:48.699Z,10.23
2019-03-28T03:16:15.327Z,7.90
2019-03-28T03:18:41.878Z,8.95
2019-03-28T03:21:08.371Z,8.10
2019-03-28T03:23:35.947Z,8.18
2019-03-28T03:26:02.490Z,9.35
2019-03-28T03:28:29.264Z,8.08
2019-03-28T03:30:55.813Z,8.28
2019-03-28T03:33:22.519Z,14.10
2019-03-28T03:35:49.209Z,11.78
2019-03-28T03:38:17.041Z,11.15
2019-03-28T03:40:44.712Z,9.20
2019-03-28T03:43:11.286Z,9.00
2019-03-28T03:45:37.942Z,11.18
2019-03-28T03:48:04.586Z,10.30
2019-03-28T03:50:31.172Z,7.80
2019-03-28T03:52:57.647Z,8.05
2019-03-28T03:55:24.255Z,8.45
2019-03-28T03:57:50.984Z,10.45
2019-03-28T04:00:30.497Z,9.80
2019-03-28T04:02:59.805Z,8.75
2019-03-28T04:05:26.394Z,9.10
2019-03-28T04:07:53.065Z,8.63
2019-03-28T04:10:19.706Z,12.47
2019-03-28T04:12:46.452Z,9.50
2019-03-28T04:15:13.275Z,9.08
2019-03-28T04:17:41.007Z,12.28
2019-03-28T04:20:07.461Z,9.85
2019-03-28T04:22:34.031Z,11.65
2019-03-28T04:25:00.752Z,7.55
2019-03-28T04:27:27.423Z,8.68
2019-03-28T04:29:54.000Z,9.73
2019-03-28T04:32:20.689Z,11.00
2019-03-28T04:34:47.336Z,9.85
2019-03-28T04:37:13.968Z,9.00
2019-03-28T04:39:40.528Z,9.05
2019-03-28T04:42:07.393Z,10.25
2019-03-28T04:44:34.011Z,12.73
2019-03-28T04:47:00.794Z,7.25
2019-03-28T04:49:27.449Z,8.98
2019-03-28T04:51:54.005Z,9.28
2019-03-28T04:54:20.498Z,7.58
2019-03-28T04:56:47.080Z,5.83
2019-03-28T04:59:13.543Z,8.15
2019-03-28T05:01:40.117Z,8.28
2019-03-28T05:04:06.702Z,14.28
2019-03-28T05:06:34.236Z,10.60
2019-03-28T05:09:00.881Z,13.15
2019-03-28T05:11:27.442Z,12.35
2019-03-28T05:13:54.074Z,10.28
2019-03-28T05:16:20.650Z,8.53
2019-03-28T05:18:47.124Z,9.53
2019-03-28T05:21:13.584Z,11.90
2019-03-28T05:23:40.543Z,8.95
2019-03-28T05:26:07.304Z,11.43
2019-03-28T05:28:33.877Z,7.45
2019-03-28T05:31:00.449Z,8.70
2019-03-28T05:33:27.108Z,9.43
2019-03-28T05:35:53.670Z,14.73
2019-03-28T05:38:20.301Z,11.28
2019-03-28T05:40:46.842Z,9.68
2019-03-28T05:43:13.404Z,16.70
2019-03-28T05:45:41.050Z,11.63
2019-03-28T05:48:07.610Z,11.80
2019-03-28T05:50:34.658Z,8.83
2019-03-28T05:53:01.360Z,11.78
2019-03-28T05:55:27.921Z,9.50
2019-03-28T05:57:54.611Z,14.50
2019-03-28T06:00:21.548Z,12.98
2019-03-28T06:02:48.236Z,14.03
2019-03-28T06:05:14.918Z,10.72
2019-03-28T06:07:41.485Z,9.73
2019-03-28T06:10:08.015Z,13.03
2019-03-28T06:12:34.582Z,12.43
2019-03-28T06:15:01.266Z,14.00
2019-03-28T06:17:28.446Z,14.87
2019-03-28T06:19:55.198Z,17.48
2019-03-28T06:22:21.786Z,15.53
2019-03-28T06:24:48.402Z,12.55
2019-03-28T06:27:14.936Z,14.45
2019-03-28T06:29:41.528Z,13.05
2019-03-28T06:32:07.988Z,14.40
2019-03-28T06:34:34.777Z,15.25
2019-03-28T06:37:01.588Z,14.33
2019-03-28T06:39:28.331Z,17.20
2019-03-28T06:41:55.004Z,14.60
2019-03-28T06:44:21.716Z,14.07
2019-03-28T06:46:48.413Z,11.28
2019-03-28T06:49:14.948Z,13.45
2019-03-28T06:51:41.591Z,17.85
2019-03-28T06:54:09.307Z,12.93
2019-03-28T06:56:35.872Z,13.88
2019-03-28T06:59:02.405Z,15.10
2019-03-28T07:01:28.857Z,16.93
2019-03-28T07:03:56.543Z,13.95
2019-03-28T07:06:23.281Z,18.15
2019-03-28T07:08:49.755Z,19.35
2019-03-28T07:11:16.323Z,16.02
2019-03-28T07:13:43.049Z,20.27
2019-03-28T07:16:09.612Z,18.23
2019-03-28T07:18:36.234Z,12.60
2019-03-28T07:21:03.070Z,13.68
2019-03-28T07:23:29.732Z,12.90
2019-03-28T07:25:56.306Z,13.32
2019-03-28T07:28:23.056Z,13.10
2019-03-28T07:30:49.903Z,13.48
2019-03-28T07:33:16.370Z,13.50
2019-03-28T07:35:43.068Z,11.30
2019-03-28T07:38:09.547Z,12.07
2019-03-28T07:40:36.239Z,15.38
2019-03-28T07:43:02.874Z,12.40
2019-03-28T07:45:29.477Z,12.13
2019-03-28T07:47:56.187Z,12.88
2019-03-28T07:50:22.622Z,13.50
2019-03-28T07:52:49.307Z,11.78
2019-03-28T07:55:16.614Z,13.45
2019-03-28T07:57:43.544Z,12.98
2019-03-28T08:00:10.592Z,11.90
2019-03-28T08:02:37.232Z,9.88
2019-03-28T08:05:07.841Z,13.00
2019-03-28T08:07:44.271Z,9.70
2019-03-28T08:10:04.882Z,9.98
2019-03-28T08:12:31.421Z,8.90
2019-03-28T08:14:57.937Z,9.30
2019-03-28T08:17:24.749Z,11.70
2019-03-28T08:19:51.222Z,7.67
2019-03-28T08:22:17.736Z,8.95
2019-03-28T08:24:44.384Z,9.15
2019-03-28T08:27:10.988Z,8.13
2019-03-28T08:29:37.665Z,7.30
2019-03-28T08:32:06.165Z,12.98
2019-03-28T08:34:32.816Z,10.75
2019-03-28T08:36:59.728Z,13.18
2019-03-28T08:39:26.332Z,12.82
2019-03-28T08:41:53.025Z,13.85
2019-03-28T08:44:22.554Z,9.68
2019-03-28T08:46:48.293Z,12.58
2019-03-28T08:49:14.947Z,14.05
2019-03-28T08:51:41.647Z,12.18
2019-03-28T08:54:08.232Z,15.08
2019-03-28T08:56:35.891Z,14.18
2019-03-28T08:59:03.815Z,13.93
2019-03-28T09:04:15.047Z,14.85
2019-03-28T09:06:41.987Z,12.13
2019-03-28T09:09:08.579Z,11.83
2019-03-28T09:11:35.230Z,13.08
2019-03-28T09:14:01.845Z,11.35
2019-03-28T09:16:28.535Z,15.60
2019-03-28T09:21:40.004Z,12.98
2019-03-28T09:24:06.817Z,23.00
2019-03-28T09:26:33.572Z,15.93
2019-03-28T09:29:00.323Z,19.25
2019-03-28T09:31:26.888Z,16.15
2019-03-28T09:33:53.478Z,14.55
2019-03-28T09:36:20.036Z,14.03
2019-03-28T09:38:46.589Z,12.90
2019-03-28T09:41:13.155Z,12.90
2019-03-28T09:43:53.978Z,13.38
2019-03-28T09:46:08.501Z,14.07
2019-03-28T09:48:34.998Z,12.55
2019-03-28T09:51:01.580Z,14.53
2019-03-28T09:53:28.467Z,11.20
2019-03-28T09:55:55.036Z,11.22
2019-03-28T09:58:21.508Z,12.53
2019-03-28T10:01:01.997Z,13.38
2019-03-28T10:03:16.692Z,14.47
2019-03-28T10:05:43.482Z,10.30
2019-03-28T10:08:10.010Z,12.30
2019-03-28T10:10:36.776Z,11.12
2019-03-28T10:13:03.469Z,10.40
2019-03-28T10:15:30.007Z,11.53
2019-03-28T10:17:56.725Z,14.00
2019-03-28T10:20:23.299Z,10.63
2019-03-28T10:22:49.849Z,10.95
2019-03-28T10:25:17.502Z,9.30
2019-03-28T10:27:43.976Z,7.08
2019-03-28T10:30:10.791Z,10.58
2019-03-28T10:32:37.652Z,8.40
2019-03-28T10:35:06.812Z,8.75
2019-03-28T10:37:32.708Z,9.05
2019-03-28T10:39:59.387Z,9.08
2019-03-28T10:42:25.996Z,9.90
2019-03-28T10:44:52.474Z,13.28
2019-03-28T10:47:21.605Z,10.75
2019-03-28T10:49:48.170Z,7.33
2019-03-28T10:52:14.800Z,8.30
2019-03-28T10:54:41.348Z,12.60
2019-03-28T10:57:13.685Z,10.60
2019-03-28T10:59:36.486Z,9.63
2019-03-28T11:02:03.298Z,9.25
2019-03-28T11:04:31.920Z,5.85
2019-03-28T11:06:58.750Z,5.53
2019-03-28T11:09:25.689Z,5.67
2019-03-28T11:11:52.275Z,6.87
2019-03-28T11:14:19.053Z,5.85
2019-03-28T11:16:48.229Z,5.50
2019-03-28T11:19:15.948Z,19.45
2019-03-28T11:21:42.942Z,6.78
2019-03-28T11:24:09.604Z,10.23
2019-03-28T11:26:37.300Z,7.70
2019-03-28T11:29:03.863Z,7.67
2019-03-28T11:31:30.555Z,9.68
2019-03-28T11:33:57.349Z,9.33
2019-03-28T11:36:23.798Z,13.28
2019-03-28T11:38:50.365Z,10.32
2019-03-28T11:41:16.864Z,6.03
2019-03-28T11:43:43.520Z,6.55
2019-03-28T11:46:10.088Z,8.30
2019-03-28T11:48:36.661Z,6.67
2019-03-28T11:51:03.388Z,9.70
2019-03-28T11:53:30.079Z,4.35
2019-03-28T11:55:56.767Z,6.00
2019-03-28T11:58:23.381Z,6.28
2019-03-28T12:00:50.641Z,6.55
2019-03-28T12:03:17.404Z,7.70
2019-03-28T12:05:44.180Z,8.38
2019-03-28T12:08:10.726Z,6.17
2019-03-28T12:10:37.479Z,6.80
2019-03-28T12:13:03.938Z,6.17
2019-03-28T12:15:30.708Z,3.87
2019-03-28T12:17:57.282Z,4.33
2019-03-28T12:20:23.966Z,5.00
2019-03-28T12:22:50.622Z,1.82
2019-03-28T12:25:17.397Z,3.72
2019-03-28T12:27:43.940Z,2.05
2019-03-28T12:30:11.089Z,1.65
2019-03-28T12:32:37.781Z,1.77
2019-03-28T12:35:05.631Z,0.80
2019-03-28T12:37:32.216Z,0.70
2019-03-28T12:40:00.085Z,0.75
2019-03-28T12:42:26.762Z,0.62
2019-03-28T12:44:57.317Z,1.45
2019-03-28T12:47:21.528Z,0.37
2019-03-28T12:49:48.079Z,2.05
2019-03-28T12:52:18.509Z,0.53
2019-03-28T12:54:44.371Z,0.78
2019-03-28T12:57:14.161Z,1.05
2019-03-28T12:59:41.345Z,0.62
2019-03-28T13:02:07.899Z,0.68
2019-03-28T13:04:34.378Z,1.75
2019-03-28T13:07:00.839Z,0.80
2019-03-28T13:09:28.214Z,2.50
2019-03-28T13:11:55.013Z,4.75
2019-03-28T13:14:21.617Z,0.95
2019-03-28T13:16:48.432Z,2.37
2019-03-28T13:19:15.222Z,1.20
2019-03-28T13:21:41.892Z,1.32
2019-03-28T13:24:08.837Z,1.55
2019-03-28T13:26:35.391Z,1.22
2019-03-28T13:29:02.066Z,1.15
2019-03-28T13:31:28.737Z,0.50
2019-03-28T13:33:55.189Z,0.53
2019-03-28T13:36:21.662Z,0.60
2019-03-28T13:38:48.295Z,22.05
2019-03-28T13:41:14.835Z,3.20
2019-03-28T13:43:41.528Z,1.80
2019-03-28T13:46:07.999Z,4.37
2019-03-28T13:48:34.548Z,6.50
2019-03-28T13:51:01.238Z,4.55
2019-03-28T13:53:38.721Z,3.77
2019-03-28T13:55:56.233Z,6.58
2019-03-28T13:58:22.705Z,6.15
2019-03-28T14:00:49.418Z,10.68
2019-03-28T14:03:16.172Z,9.20
2019-03-28T14:05:42.859Z,6.40
2019-03-28T14:08:09.490Z,8.60
2019-03-28T14:10:35.985Z,8.13
2019-03-28T14:13:02.644Z,4.97
2019-03-28T14:15:29.267Z,5.92
2019-03-28T14:17:56.018Z,3.50
2019-03-28T14:20:22.619Z,8.13
2019-03-28T14:22:49.301Z,4.62
2019-03-28T14:25:15.957Z,4.35
2019-03-28T14:27:42.506Z,3.90
2019-03-28T14:30:09.695Z,3.87
2019-03-28T14:32:37.476Z,4.10
2019-03-28T14:35:04.127Z,3.10
2019-03-28T14:37:31.000Z,3.40
2019-03-28T14:39:57.576Z,6.50
2019-03-28T14:42:24.234Z,7.05
2019-03-28T14:44:50.722Z,2.12
2019-03-28T14:47:17.482Z,4.83
2019-03-28T14:49:44.038Z,3.27
2019-03-28T14:52:10.760Z,3.83
2019-03-28T14:54:37.319Z,7.17
2019-03-28T14:57:03.802Z,5.40
2019-03-28T14:59:32.695Z,4.70
2019-03-28T15:01:59.707Z,6.30
2019-03-28T15:04:26.301Z,6.85
2019-03-28T15:06:52.956Z,4.17
2019-03-28T15:09:20.638Z,3.45
2019-03-28T15:11:47.274Z,3.95
2019-03-28T15:14:13.901Z,2.98
2019-03-28T15:16:40.676Z,2.85
2019-03-28T15:19:07.269Z,8.20
2019-03-28T15:21:33.945Z,7.10
2019-03-28T15:24:00.599Z,5.53
2019-03-28T15:26:30.167Z,7.90
2019-03-28T15:28:55.686Z,6.22
2019-03-28T15:31:22.257Z,4.15
2019-03-28T15:33:48.845Z,5.72
2019-03-28T15:36:15.398Z,5.40
2019-03-28T15:38:41.977Z,8.35
2019-03-28T15:41:08.973Z,7.80
2019-03-28T15:43:35.552Z,3.62
2019-03-28T15:46:02.140Z,4.78
2019-03-28T15:48:28.895Z,3.65
2019-03-28T15:50:55.548Z,6.17
2019-03-28T15:53:22.123Z,3.80
2019-03-28T15:55:48.974Z,3.30
2019-03-28T15:58:23.220Z,5.25
2019-03-28T16:00:43.912Z,2.42
2019-03-28T16:03:10.625Z,3.40
2019-03-28T16:05:37.281Z,6.33
2019-03-28T16:08:03.864Z,4.65
2019-03-28T16:10:30.426Z,2.70
2019-03-28T16:12:57.002Z,8.20
2019-03-28T16:15:23.554Z,3.40
2019-03-28T16:17:50.132Z,1.90
2019-03-28T16:20:16.724Z,3.40
2019-03-28T16:22:43.444Z,1.98
2019-03-28T16:25:09.918Z,2.65
2019-03-28T16:27:36.485Z,4.35
2019-03-28T16:30:08.761Z,5.50
2019-03-28T16:32:35.354Z,2.50
2019-03-28T16:35:03.679Z,2.72
2019-03-28T16:37:30.322Z,3.15
2019-03-28T16:39:57.182Z,3.20
2019-03-28T16:42:23.730Z,2.27
2019-03-28T16:44:50.622Z,3.87
2019-03-28T16:47:17.224Z,2.95
2019-03-28T16:49:45.258Z,3.92
2019-03-28T16:52:11.893Z,2.58
2019-03-28T16:54:39.602Z,4.95
2019-03-28T16:57:06.193Z,6.80
2019-03-28T16:59:32.720Z,4.97
2019-03-28T17:01:59.486Z,3.90
2019-03-28T17:04:26.138Z,5.67
2019-03-28T17:06:52.744Z,2.72
2019-03-28T17:09:19.369Z,4.15
2019-03-28T17:11:45.940Z,2.72
2019-03-28T17:14:12.608Z,4.60
2019-03-28T17:16:39.277Z,2.47
2019-03-28T17:19:05.908Z,2.87
2019-03-28T17:21:32.351Z,3.40
2019-03-28T17:23:59.103Z,3.15
2019-03-28T17:26:25.884Z,27.32
2019-03-28T17:28:52.418Z,19.02
2019-03-28T17:31:19.675Z,12.10
2019-03-28T17:33:46.210Z,6.35
2019-03-28T17:36:12.801Z,7.58
2019-03-28T17:38:39.590Z,5.95
2019-03-28T17:41:07.203Z,5.25
2019-03-28T17:43:34.870Z,7.80
2019-03-28T17:46:01.452Z,11.65
2019-03-28T17:48:28.614Z,7.22
2019-03-28T17:50:55.441Z,8.03
2019-03-28T17:53:24.040Z,6.08
2019-03-28T17:55:50.475Z,8.13
2019-03-28T17:58:16.960Z,6.75
2019-03-28T18:00:44.845Z,6.90
2019-03-28T18:03:11.658Z,8.23
2019-03-28T18:05:40.602Z,5.42
2019-03-28T18:08:06.729Z,5.60
2019-03-28T18:10:33.287Z,5.42
2019-03-28T18:12:59.988Z,6.97
2019-03-28T18:15:26.584Z,6.92
2019-03-28T18:17:53.135Z,5.97
2019-03-28T18:20:19.718Z,4.58
2019-03-28T18:22:46.385Z,5.95
2019-03-28T18:25:12.978Z,3.72
2019-03-28T18:27:39.563Z,6.45
2019-03-28T18:30:06.352Z,5.85
2019-03-28T18:32:33.028Z,3.12
2019-03-28T18:35:05.509Z,5.33
2019-03-28T18:37:28.256Z,5.20
2019-03-28T18:39:55.026Z,5.33
2019-03-28T18:42:22.147Z,3.40
2019-03-28T18:44:48.661Z,3.17
2019-03-28T18:47:15.422Z,1.98
2019-03-28T18:49:42.289Z,3.22
2019-03-28T18:52:08.911Z,4.03
2019-03-28T18:54:35.868Z,4.10
2019-03-28T18:57:03.389Z,5.00
2019-03-28T18:59:31.063Z,6.28
2019-03-28T19:01:57.524Z,5.28
2019-03-28T19:04:24.184Z,4.55
2019-03-28T19:06:50.764Z,4.42
2019-03-28T19:09:17.331Z,6.87
2019-03-28T19:11:43.893Z,4.47
2019-03-28T19:14:10.558Z,4.90
2019-03-28T19:16:37.023Z,6.60
2019-03-28T19:19:03.801Z,8.58
2019-03-28T19:21:30.524Z,7.58
2019-03-28T19:23:57.146Z,3.80
2019-03-28T19:26:23.915Z,4.83
2019-03-28T19:28:50.395Z,7.15
2019-03-28T19:31:17.347Z,3.22
2019-03-28T19:33:44.000Z,6.78
2019-03-28T19:36:10.667Z,8.45
2019-03-28T19:38:37.148Z,7.00
2019-03-28T19:41:03.712Z,5.05
2019-03-28T19:43:30.618Z,4.37
2019-03-28T19:45:57.422Z,6.40
2019-03-28T19:48:24.167Z,5.65
2019-03-28T19:50:50.775Z,6.55
2019-03-28T19:53:17.985Z,3.55
2019-03-28T19:55:44.800Z,6.60
2019-03-28T19:58:13.579Z,3.00
2019-03-28T20:00:39.937Z,3.20
2019-03-28T20:03:06.572Z,4.50
2019-03-28T20:05:46.327Z,4.85
2019-03-28T20:08:14.660Z,3.55
2019-03-28T20:10:30.289Z,4.25
2019-03-28T20:12:57.594Z,9.85
2019-03-28T20:15:24.362Z,3.50
2019-03-28T20:17:50.978Z,5.87
2019-03-28T20:20:17.692Z,4.12
2019-03-28T20:22:45.075Z,2.92
2019-03-28T20:25:11.572Z,3.30
2019-03-28T20:27:38.143Z,4.45
2019-03-28T20:30:05.216Z,5.03
2019-03-28T20:32:31.796Z,4.12
2019-03-28T20:34:58.414Z,4.05
2019-03-28T20:37:25.032Z,6.37
2019-03-28T20:39:51.598Z,4.22
2019-03-28T20:42:18.340Z,2.85
2019-03-28T20:44:45.017Z,3.42
2019-03-28T20:47:11.708Z,2.67
2019-03-28T20:49:38.268Z,5.35
2019-03-28T20:52:04.888Z,2.98
2019-03-28T20:54:31.457Z,8.03
2019-03-28T20:56:59.343Z,3.72
2019-03-28T20:59:26.032Z,4.70
2019-03-28T21:01:52.680Z,3.58
2019-03-28T21:04:31.159Z,4.92
2019-03-28T21:06:49.540Z,5.40
2019-03-28T21:09:16.027Z,3.05
2019-03-28T21:11:42.611Z,8.55
2019-03-28T21:14:09.135Z,3.70
2019-03-28T21:16:35.988Z,4.47
2019-03-28T21:19:02.548Z,3.45
2019-03-28T21:21:29.312Z,4.08
2019-03-28T21:23:55.968Z,4.28
2019-03-28T21:26:22.550Z,3.02
2019-03-28T21:28:49.139Z,2.87
2019-03-28T21:31:16.944Z,5.80
2019-03-28T21:33:43.724Z,3.83
2019-03-28T21:36:11.451Z,3.75
2019-03-28T21:38:38.030Z,5.15
2019-03-28T21:41:04.592Z,5.72
2019-03-28T21:43:31.330Z,5.15
2019-03-28T21:45:58.009Z,3.47
2019-03-28T21:48:24.562Z,3.70
2019-03-28T21:50:51.031Z,3.22
2019-03-28T21:53:19.958Z,3.83
2019-03-28T21:55:55.145Z,4.00
2019-03-28T21:58:14.606Z,5.78
2019-03-28T22:00:41.178Z,4.20
2019-03-28T22:03:07.865Z,2.58
2019-03-28T22:05:34.484Z,2.77
2019-03-28T22:08:01.034Z,5.35
2019-03-28T22:10:27.576Z,2.45
2019-03-28T22:12:55.771Z,3.33
2019-03-28T22:15:22.432Z,4.42
2019-03-28T22:17:49.042Z,3.20
2019-03-28T22:20:15.501Z,4.00
2019-03-28T22:22:43.533Z,4.70
2019-03-28T22:25:10.318Z,3.50
2019-03-28T22:27:37.075Z,2.20
2019-03-28T22:30:04.444Z,2.90
2019-03-28T22:32:32.410Z,2.87
2019-03-28T22:34:59.838Z,3.12
2019-03-28T22:37:26.536Z,4.15
2019-03-28T22:39:53.238Z,3.85
2019-03-28T22:42:19.790Z,3.52
2019-03-28T22:44:46.232Z,3.27
2019-03-28T22:47:12.942Z,4.55
2019-03-28T22:49:39.700Z,2.92
2019-03-28T22:52:06.360Z,3.83
2019-03-28T22:54:32.817Z,3.02
2019-03-28T22:56:59.463Z,2.95
2019-03-28T22:59:26.917Z,3.10
2019-03-28T23:01:53.809Z,3.10
2019-03-28T23:04:20.372Z,3.80
2019-03-28T23:06:47.069Z,3.37
2019-03-28T23:09:13.737Z,2.60
2019-03-28T23:11:40.700Z,2.67
2019-03-28T23:14:07.748Z,3.62
2019-03-28T23:16:34.434Z,5.53
2019-03-28T23:19:00.974Z,5.85
2019-03-28T23:21:27.635Z,3.75
2019-03-28T23:23:54.201Z,3.85
2019-03-28T23:26:20.799Z,3.35
2019-03-28T23:28:47.360Z,3.90
2019-03-28T23:31:13.886Z,4.70
2019-03-28T23:33:40.483Z,3.17
2019-03-28T23:36:07.287Z,2.77
2019-03-28T23:38:33.990Z,2.62
2019-03-28T23:41:00.664Z,3.77
2019-03-28T23:43:27.287Z,4.25
2019-03-28T23:45:53.932Z,2.65
2019-03-28T23:48:21.158Z,2.47
2019-03-28T23:50:48.400Z,3.02
2019-03-28T23:53:15.261Z,5.28
2019-03-28T23:55:41.837Z,2.85
2019-03-28T23:58:08.379Z,3.05
